createdAt,value
2019-05-10T00:00:16.134Z,10.84
2019-05-10T00:03:04.194Z,10.83
2019-05-10T00:05:50.909Z,10.81
2019-05-10T00:08:37.615Z,10.74
2019-05-10T00:11:35.281Z,10.70
2019-05-10T00:14:25.842Z,10.73
2019-05-10T00:16:58.282Z,10.69
2019-05-10T00:19:27.446Z,10.65
2019-05-10T00:21:56.598Z,10.62
2019-05-10T00:24:25.751Z,10.64
2019-05-10T00:26:54.978Z,10.63
2019-05-10T00:29:24.107Z,10.65
2019-05-10T00:31:53.248Z,10.69
2019-05-10T00:34:22.437Z,10.75
2019-05-10T00:36:51.563Z,10.82
2019-05-10T00:39:20.840Z,10.89
2019-05-10T00:41:50.039Z,10.95
2019-05-10T00:44:19.184Z,10.99
2019-05-10T00:46:48.369Z,11.03
2019-05-10T00:49:17.558Z,11.10
2019-05-10T00:51:46.701Z,11.12
2019-05-10T00:54:15.878Z,11.14
2019-05-10T00:56:45.028Z,11.18
2019-05-10T00:59:14.217Z,11.20
2019-05-10T01:01:43.351Z,11.27
2019-05-10T01:04:12.526Z,10.24
2019-05-10T01:06:41.682Z,11.35
2019-05-10T01:09:13.273Z,11.36
2019-05-10T01:11:42.432Z,11.35
2019-05-10T01:14:11.592Z,11.36
2019-05-10T01:16:40.756Z,11.38
2019-05-10T01:19:09.900Z,11.38
2019-05-10T01:21:39.043Z,11.40
2019-05-10T01:24:08.186Z,11.45
2019-05-10T01:26:37.348Z,11.44
2019-05-10T01:29:06.502Z,11.45
2019-05-10T01:31:35.659Z,11.48
2019-05-10T01:34:04.772Z,11.50
2019-05-10T01:36:33.934Z,11.52
2019-05-10T01:39:03.522Z,11.51
2019-05-10T01:41:32.680Z,11.52
2019-05-10T01:44:01.886Z,11.52
2019-05-10T01:46:30.989Z,11.54
2019-05-10T01:49:00.138Z,11.54
2019-05-10T01:51:29.266Z,11.54
2019-05-10T01:53:58.411Z,11.54
2019-05-10T01:56:27.542Z,11.54
2019-05-10T01:58:56.667Z,11.56
2019-05-10T02:01:26.117Z,10.72
2019-05-10T02:03:55.236Z,11.57
2019-05-10T02:06:24.384Z,11.59
2019-05-10T02:08:53.534Z,11.58
2019-05-10T02:11:22.676Z,11.58
2019-05-10T02:13:51.919Z,11.58
2019-05-10T02:16:21.017Z,11.57
2019-05-10T02:18:50.127Z,11.53
2019-05-10T02:21:19.270Z,11.50
2019-05-10T02:23:48.387Z,11.49
2019-05-10T02:26:17.562Z,11.52
2019-05-10T02:28:46.705Z,11.52
2019-05-10T02:31:20.722Z,11.51
2019-05-10T02:33:46.697Z,11.52
2019-05-10T02:36:15.828Z,11.52
2019-05-10T02:38:44.951Z,11.51
2019-05-10T02:41:14.091Z,11.52
2019-05-10T02:43:43.261Z,11.51
2019-05-10T02:46:12.393Z,11.51
2019-05-10T02:48:41.528Z,11.52
2019-05-10T02:51:10.690Z,11.55
2019-05-10T02:53:40.038Z,11.54
2019-05-10T02:56:28.724Z,11.53
2019-05-10T02:58:40.054Z,11.53
2019-05-10T03:01:11.091Z,11.52
2019-05-10T03:03:42.951Z,11.49
2019-05-10T03:06:15.154Z,11.49
2019-05-10T03:08:49.550Z,11.50
2019-05-10T03:11:18.798Z,11.48
2019-05-10T03:13:52.375Z,11.46
2019-05-10T03:16:23.507Z,11.43
2019-05-10T03:18:53.752Z,11.39
2019-05-10T03:21:24.623Z,11.35
2019-05-10T03:23:53.777Z,11.30
2019-05-10T03:26:22.976Z,11.27
2019-05-10T03:28:52.393Z,11.24
2019-05-10T03:31:21.546Z,11.21
2019-05-10T03:33:56.383Z,11.18
2019-05-10T03:36:21.528Z,11.15
2019-05-10T03:38:50.684Z,11.12
2019-05-10T03:41:19.829Z,11.09
2019-05-10T03:43:48.951Z,11.05
2019-05-10T03:46:18.145Z,11.02
2019-05-10T03:48:47.359Z,10.99
2019-05-10T03:51:16.488Z,10.93
2019-05-10T03:53:45.600Z,10.89
2019-05-10T03:56:14.715Z,10.85
2019-05-10T03:58:43.847Z,10.83
2019-05-10T04:01:13.193Z,10.80
2019-05-10T04:03:42.293Z,10.78
2019-05-10T04:06:11.404Z,10.77
2019-05-10T04:08:40.525Z,10.73
2019-05-10T04:11:09.654Z,10.70
2019-05-10T04:13:38.762Z,10.70
2019-05-10T04:16:07.926Z,10.70
2019-05-10T04:18:37.101Z,10.65
2019-05-10T04:21:06.204Z,10.65
2019-05-10T04:23:35.303Z,10.65
2019-05-10T04:26:04.432Z,10.65
2019-05-10T04:28:33.571Z,10.65
2019-05-10T04:31:02.726Z,10.64
2019-05-10T04:33:31.960Z,10.65
2019-05-10T04:36:01.142Z,10.65
2019-05-10T04:38:30.244Z,10.67
2019-05-10T04:40:59.382Z,10.67
2019-05-10T04:43:28.500Z,10.70
2019-05-10T04:45:57.646Z,10.73
2019-05-10T04:48:26.759Z,10.71
2019-05-10T04:50:55.875Z,10.70
2019-05-10T04:53:25.018Z,10.72
2019-05-10T04:55:54.254Z,10.71
2019-05-10T04:58:23.352Z,10.73
2019-05-10T05:00:52.468Z,10.74
2019-05-10T05:03:21.599Z,10.79
2019-05-10T05:05:50.733Z,10.81
2019-05-10T05:08:19.839Z,10.82
2019-05-10T05:10:48.958Z,10.80
2019-05-10T05:13:18.103Z,10.82
2019-05-10T05:15:47.222Z,10.78
2019-05-10T05:18:16.343Z,10.81
2019-05-10T05:20:45.457Z,10.84
2019-05-10T05:23:14.591Z,10.86
2019-05-10T05:25:43.703Z,10.88
2019-05-10T05:28:12.858Z,10.91
2019-05-10T05:30:41.973Z,10.97
2019-05-10T05:33:11.131Z,11.02
2019-05-10T05:35:40.264Z,11.09
2019-05-10T05:38:09.392Z,11.14
2019-05-10T05:40:38.591Z,11.12
2019-05-10T05:43:08.437Z,11.17
2019-05-10T05:45:37.916Z,11.23
2019-05-10T05:48:07.033Z,11.28
2019-05-10T05:50:36.140Z,11.32
2019-05-10T05:53:05.264Z,11.35
2019-05-10T05:55:34.406Z,11.38
2019-05-10T05:58:05.224Z,11.44
2019-05-10T06:00:37.593Z,11.42
2019-05-10T06:03:08.010Z,11.43
2019-05-10T06:05:37.508Z,11.48
2019-05-10T06:08:21.446Z,11.52
2019-05-10T06:10:38.058Z,11.58
2019-05-10T06:13:07.203Z,11.64
2019-05-10T06:15:36.341Z,11.62
2019-05-10T06:18:09.878Z,11.02
2019-05-10T06:20:38.314Z,11.66
2019-05-10T06:23:07.438Z,11.66
2019-05-10T06:25:40.202Z,11.56
2019-05-10T06:28:25.039Z,11.55
2019-05-10T06:30:38.340Z,11.56
2019-05-10T06:33:12.781Z,11.43
2019-05-10T06:35:38.341Z,11.36
2019-05-10T06:38:07.463Z,11.33
2019-05-10T06:40:44.786Z,11.01
2019-05-10T06:43:13.476Z,11.27
2019-05-10T06:45:38.340Z,11.31
2019-05-10T06:48:07.469Z,11.34
2019-05-10T06:50:36.603Z,11.33
2019-05-10T06:53:10.516Z,11.29
2019-05-10T06:55:36.903Z,11.28
2019-05-10T06:58:06.013Z,11.25
2019-05-10T07:00:38.262Z,11.26
2019-05-10T07:03:06.064Z,11.22
2019-05-10T07:05:35.203Z,11.23
2019-05-10T07:08:13.165Z,11.22
2019-05-10T07:10:35.175Z,11.21
2019-05-10T07:13:06.623Z,11.25
2019-05-10T07:15:35.623Z,11.24
2019-05-10T07:18:06.000Z,11.19
2019-05-10T07:20:35.133Z,11.20
2019-05-10T07:23:06.034Z,11.22
2019-05-10T07:25:37.894Z,11.20
2019-05-10T07:28:09.510Z,11.18
2019-05-10T07:30:41.495Z,11.18
2019-05-10T07:33:08.901Z,11.20
2019-05-10T07:35:38.799Z,11.19
2019-05-10T07:38:08.118Z,11.23
2019-05-10T07:40:37.239Z,11.27
2019-05-10T07:43:06.356Z,11.29
2019-05-10T07:45:35.549Z,11.33
2019-05-10T07:48:08.295Z,11.34
2019-05-10T07:50:35.517Z,11.33
2019-05-10T07:53:04.653Z,11.32
2019-05-10T07:55:33.827Z,11.31
2019-05-10T07:58:04.925Z,11.32
2019-05-10T08:00:38.007Z,11.34
2019-05-10T08:03:15.189Z,11.35
2019-05-10T08:05:35.658Z,11.37
2019-05-10T08:08:04.914Z,11.40
2019-05-10T08:10:34.054Z,11.39
2019-05-10T08:13:03.699Z,11.46
2019-05-10T08:15:34.783Z,11.49
2019-05-10T08:18:03.729Z,11.53
2019-05-10T08:20:46.591Z,11.58
2019-05-10T08:23:03.733Z,11.62
2019-05-10T08:25:36.341Z,11.64
2019-05-10T08:28:05.518Z,11.67
2019-05-10T08:30:42.506Z,11.75
2019-05-10T08:33:10.882Z,11.82
2019-05-10T08:35:43.625Z,11.88
2019-05-10T08:38:12.717Z,11.92
2019-05-10T08:40:42.735Z,11.91
2019-05-10T08:43:16.108Z,11.91
2019-05-10T08:45:45.030Z,11.89
2019-05-10T08:48:13.868Z,11.86
2019-05-10T08:50:52.767Z,11.89
2019-05-10T08:53:16.328Z,11.93
2019-05-10T08:55:44.882Z,11.99
2019-05-10T08:58:14.005Z,12.05
2019-05-10T09:00:53.857Z,12.15
2019-05-10T09:03:18.520Z,12.24
2019-05-10T09:05:44.807Z,12.29
2019-05-10T09:08:20.247Z,12.40
2019-05-10T09:10:44.810Z,12.52
2019-05-10T09:13:14.102Z,12.64
2019-05-10T09:15:51.789Z,12.81
2019-05-10T09:18:14.056Z,13.04
2019-05-10T09:20:43.188Z,13.21
2019-05-10T09:23:15.459Z,13.37
2019-05-10T09:25:43.176Z,13.56
2019-05-10T09:28:16.776Z,13.65
2019-05-10T09:30:56.939Z,13.71
2019-05-10T09:33:14.676Z,13.65
2019-05-10T09:35:47.591Z,13.73
2019-05-10T09:38:14.755Z,13.77
2019-05-10T09:40:51.114Z,13.66
2019-05-10T09:43:15.144Z,13.67
2019-05-10T09:45:44.286Z,13.66
2019-05-10T09:48:13.403Z,13.68
2019-05-10T09:50:47.038Z,13.79
2019-05-10T09:53:18.224Z,13.85
2019-05-10T09:55:45.649Z,13.76
2019-05-10T09:58:15.205Z,13.79
2019-05-10T10:00:44.396Z,13.78
2019-05-10T10:03:13.515Z,13.68
2019-05-10T10:05:42.981Z,13.57
2019-05-10T10:08:12.166Z,13.58
2019-05-10T10:10:41.405Z,13.49
2019-05-10T10:13:13.439Z,13.45
2019-05-10T10:15:41.415Z,13.33
2019-05-10T10:18:12.659Z,13.28
2019-05-10T10:20:45.006Z,13.25
2019-05-10T10:23:12.371Z,13.14
2019-05-10T10:25:42.287Z,13.11
2019-05-10T10:28:17.001Z,13.14
2019-05-10T10:30:42.477Z,13.09
2019-05-10T10:33:17.787Z,13.17
2019-05-10T10:35:42.481Z,13.32
2019-05-10T10:38:11.651Z,13.39
2019-05-10T10:40:44.807Z,13.60
2019-05-10T10:43:11.744Z,13.88
2019-05-10T10:45:40.849Z,14.34
2019-05-10T10:48:12.729Z,14.83
2019-05-10T10:50:44.506Z,15.30
2019-05-10T10:53:11.692Z,15.55
2019-05-10T10:55:48.519Z,15.72
2019-05-10T10:58:11.654Z,15.80
2019-05-10T11:00:40.798Z,15.95
2019-05-10T11:03:09.941Z,16.24
2019-05-10T11:05:39.088Z,16.46
2019-05-10T11:08:08.265Z,16.56
2019-05-10T11:10:38.163Z,16.67
2019-05-10T11:13:12.106Z,16.67
2019-05-10T11:15:38.187Z,16.50
2019-05-10T11:18:07.323Z,16.34
2019-05-10T11:20:36.462Z,16.19
2019-05-10T11:23:05.582Z,16.05
2019-05-10T11:25:34.692Z,15.85
2019-05-10T11:28:03.928Z,15.70
2019-05-10T11:30:33.243Z,14.07
2019-05-10T11:33:02.446Z,15.45
2019-05-10T11:35:34.470Z,15.39
2019-05-10T11:38:06.860Z,15.45
2019-05-10T11:40:35.134Z,15.47
2019-05-10T11:43:04.225Z,15.38
2019-05-10T11:45:35.486Z,15.21
2019-05-10T11:48:04.362Z,15.22
2019-05-10T11:50:35.562Z,15.29
2019-05-10T11:53:06.787Z,15.23
2019-05-10T11:55:39.780Z,15.21
2019-05-10T11:58:08.894Z,15.30
2019-05-10T12:00:38.070Z,15.36
2019-05-10T12:03:12.638Z,15.55
2019-05-10T12:05:38.136Z,15.73
2019-05-10T12:08:07.291Z,15.95
2019-05-10T12:10:44.872Z,16.10
2019-05-10T12:13:15.899Z,16.25
2019-05-10T12:15:42.574Z,16.51
2019-05-10T12:18:14.299Z,16.67
2019-05-10T12:20:54.104Z,16.85
2019-05-10T12:23:13.242Z,16.90
2019-05-10T12:25:53.106Z,16.87
2019-05-10T12:28:15.476Z,16.83
2019-05-10T12:30:43.643Z,16.73
2019-05-10T12:33:23.966Z,16.88
2019-05-10T12:35:47.293Z,17.09
2019-05-10T12:38:14.554Z,17.30
2019-05-10T12:40:45.860Z,17.39
2019-05-10T12:43:14.554Z,17.35
2019-05-10T12:45:43.689Z,17.36
2019-05-10T12:48:12.828Z,17.36
2019-05-10T12:50:44.253Z,17.27
2019-05-10T12:53:17.873Z,17.29
2019-05-10T12:55:43.772Z,17.22
2019-05-10T12:58:12.918Z,17.14
2019-05-10T13:00:46.322Z,17.14
2019-05-10T13:03:13.631Z,17.11
2019-05-10T13:05:52.131Z,17.01
2019-05-10T13:08:13.813Z,17.04
2019-05-10T13:10:44.192Z,16.97
2019-05-10T13:13:17.635Z,16.99
2019-05-10T13:15:44.722Z,16.97
2019-05-10T13:18:13.913Z,16.89
2019-05-10T13:20:43.069Z,16.85
2019-05-10T13:23:16.136Z,16.80
2019-05-10T13:25:43.099Z,16.73
2019-05-10T13:28:12.265Z,16.79
2019-05-10T13:30:41.415Z,16.78
2019-05-10T13:33:10.614Z,16.77
2019-05-10T13:35:39.889Z,16.71
2019-05-10T13:38:09.033Z,16.74
2019-05-10T13:40:45.321Z,16.71
2019-05-10T13:43:09.051Z,16.78
2019-05-10T13:45:39.617Z,16.88
2019-05-10T13:48:08.913Z,17.04
2019-05-10T13:50:38.039Z,16.37
2019-05-10T13:53:19.713Z,17.00
2019-05-10T13:55:38.122Z,17.07
2019-05-10T13:58:07.313Z,17.02
2019-05-10T14:00:36.438Z,17.11
2019-05-10T14:03:11.370Z,17.24
2019-05-10T14:05:39.815Z,17.40
2019-05-10T14:08:07.457Z,17.51
2019-05-10T14:10:36.669Z,17.57
2019-05-10T14:13:05.774Z,17.60
2019-05-10T14:15:34.942Z,17.63
2019-05-10T14:18:04.080Z,17.62
2019-05-10T14:20:33.282Z,17.56
2019-05-10T14:23:02.417Z,17.56
2019-05-10T14:25:36.490Z,17.50
2019-05-10T14:28:02.568Z,17.41
2019-05-10T14:30:31.721Z,17.40
2019-05-10T14:33:00.923Z,17.39
2019-05-10T14:35:30.169Z,17.33
2019-05-10T14:38:07.317Z,17.32
2019-05-10T14:40:30.799Z,17.34
2019-05-10T14:43:00.343Z,17.15
2019-05-10T14:45:29.447Z,17.08
2019-05-10T14:47:58.642Z,17.03
2019-05-10T14:50:28.551Z,17.05
2019-05-10T14:52:57.841Z,16.99
2019-05-10T14:55:33.663Z,16.98
2019-05-10T14:57:57.861Z,16.98
2019-05-10T15:00:27.121Z,17.05
2019-05-10T15:02:56.659Z,17.00
2019-05-10T15:05:27.138Z,16.80
2019-05-10T15:07:56.292Z,16.77
2019-05-10T15:10:25.426Z,16.71
2019-05-10T15:12:54.579Z,16.63
2019-05-10T15:15:23.720Z,16.62
2019-05-10T15:17:59.303Z,16.59
2019-05-10T15:20:23.818Z,16.56
2019-05-10T15:22:52.961Z,16.48
2019-05-10T15:25:22.122Z,16.38
2019-05-10T15:27:54.601Z,16.32
2019-05-10T15:30:22.112Z,16.29
2019-05-10T15:32:51.260Z,16.30
2019-05-10T15:35:20.418Z,16.33
2019-05-10T15:37:49.609Z,16.36
2019-05-10T15:40:18.876Z,16.36
2019-05-10T15:42:48.052Z,16.32
2019-05-10T15:45:19.511Z,16.28
2019-05-10T15:47:51.633Z,16.24
2019-05-10T15:50:19.243Z,16.10
2019-05-10T15:52:48.822Z,16.05
2019-05-10T15:55:26.847Z,16.02
2019-05-10T15:57:51.877Z,15.99
2019-05-10T16:00:24.846Z,15.95
2019-05-10T16:02:53.376Z,15.99
2019-05-10T16:05:29.332Z,16.11
2019-05-10T16:07:53.202Z,16.19
2019-05-10T16:10:28.520Z,16.26
2019-05-10T16:12:53.374Z,16.29
2019-05-10T16:15:22.631Z,16.32
2019-05-10T16:17:53.794Z,16.32
2019-05-10T16:20:22.657Z,16.31
2019-05-10T16:22:51.972Z,16.22
2019-05-10T16:25:21.135Z,16.19
2019-05-10T16:27:50.340Z,16.16
2019-05-10T16:30:20.416Z,16.08
2019-05-10T16:32:49.542Z,16.04
2019-05-10T16:35:21.928Z,16.03
2019-05-10T16:37:49.618Z,16.02
2019-05-10T16:40:19.101Z,16.01
2019-05-10T16:42:48.383Z,15.98
2019-05-10T16:45:17.548Z,15.97
2019-05-10T16:47:46.688Z,15.81
2019-05-10T16:50:15.883Z,15.74
2019-05-10T16:52:45.031Z,15.72
2019-05-10T16:55:14.173Z,15.69
2019-05-10T16:57:43.427Z,15.64
2019-05-10T17:00:12.955Z,15.63
2019-05-10T17:02:43.880Z,15.61
2019-05-10T17:05:15.143Z,15.55
2019-05-10T17:07:44.315Z,15.56
2019-05-10T17:10:14.873Z,15.49
2019-05-10T17:12:44.042Z,15.43
2019-05-10T17:15:13.344Z,15.44
2019-05-10T17:17:44.850Z,15.45
2019-05-10T17:20:15.504Z,15.45
2019-05-10T17:22:44.492Z,15.45
2019-05-10T17:25:13.673Z,15.47
2019-05-10T17:27:43.030Z,15.47
2019-05-10T17:30:13.442Z,15.46
2019-05-10T17:32:42.589Z,15.46
2019-05-10T17:35:11.803Z,15.47
2019-05-10T17:37:41.009Z,15.47
2019-05-10T17:40:12.076Z,15.43
2019-05-10T17:42:43.050Z,15.38
2019-05-10T17:45:12.367Z,15.34
2019-05-10T17:47:41.549Z,15.31
2019-05-10T17:50:10.939Z,15.29
2019-05-10T17:52:40.125Z,15.25
2019-05-10T17:55:16.845Z,15.19
2019-05-10T17:57:40.273Z,15.15
2019-05-10T18:00:10.136Z,15.13
2019-05-10T18:02:39.250Z,15.08
2019-05-10T18:05:08.951Z,15.02
2019-05-10T18:07:38.108Z,14.93
2019-05-10T18:10:08.232Z,14.87
2019-05-10T18:12:37.378Z,14.82
2019-05-10T18:15:07.026Z,14.81
2019-05-10T18:17:36.181Z,14.77
2019-05-10T18:20:05.863Z,14.74
2019-05-10T18:22:42.820Z,14.73
2019-05-10T18:25:06.479Z,14.71
2019-05-10T18:27:35.692Z,14.70
2019-05-10T18:30:05.234Z,14.65
2019-05-10T18:32:35.393Z,14.57
2019-05-10T18:35:13.231Z,14.48
2019-05-10T18:37:36.911Z,14.39
2019-05-10T18:40:06.266Z,14.32
2019-05-10T18:42:35.379Z,14.28
2019-05-10T18:45:04.944Z,14.25
2019-05-10T18:47:34.082Z,14.24
2019-05-10T18:50:03.212Z,14.21
2019-05-10T18:52:32.364Z,14.19
2019-05-10T18:55:01.802Z,14.14
2019-05-10T18:57:30.917Z,14.11
2019-05-10T19:00:00.131Z,14.09
2019-05-10T19:02:29.310Z,14.06
2019-05-10T19:04:58.490Z,14.00
2019-05-10T19:07:27.656Z,13.98
2019-05-10T19:09:56.780Z,13.97
2019-05-10T19:12:26.199Z,13.93
2019-05-10T19:14:55.417Z,13.87
2019-05-10T19:17:24.683Z,13.78
2019-05-10T19:19:53.856Z,13.66
2019-05-10T19:22:23.004Z,13.56
2019-05-10T19:24:52.116Z,13.49
2019-05-10T19:27:24.751Z,13.44
2019-05-10T19:29:52.129Z,13.40
2019-05-10T19:32:21.266Z,13.37
2019-05-10T19:34:57.325Z,13.35
2019-05-10T19:37:31.568Z,13.29
2019-05-10T19:39:52.209Z,13.22
2019-05-10T19:42:21.349Z,13.13
2019-05-10T19:44:50.466Z,13.06
2019-05-10T19:47:20.065Z,13.02
2019-05-10T19:49:51.714Z,12.97
2019-05-10T19:52:26.268Z,12.93
2019-05-10T19:54:51.094Z,12.90
2019-05-10T19:57:20.206Z,12.88
2019-05-10T19:59:50.303Z,12.87
2019-05-10T20:02:19.708Z,12.85
2019-05-10T20:04:49.899Z,12.84
2019-05-10T20:07:19.046Z,12.83
2019-05-10T20:09:48.169Z,12.82
2019-05-10T20:12:17.324Z,12.76
2019-05-10T20:14:46.542Z,12.73
2019-05-10T20:17:15.817Z,12.65
2019-05-10T20:19:45.106Z,12.60
2019-05-10T20:22:14.937Z,12.56
2019-05-10T20:24:44.112Z,12.53
2019-05-10T20:27:13.302Z,12.52
2019-05-10T20:29:42.447Z,12.52
2019-05-10T20:32:11.600Z,12.50
2019-05-10T20:34:40.733Z,12.47
2019-05-10T20:37:09.970Z,12.42
2019-05-10T20:39:39.070Z,12.38
2019-05-10T20:42:08.261Z,12.34
2019-05-10T20:44:37.396Z,12.32
2019-05-10T20:47:06.537Z,12.29
2019-05-10T20:49:35.722Z,12.29
2019-05-10T20:52:04.893Z,12.26
2019-05-10T20:54:34.061Z,12.18
2019-05-10T20:57:03.211Z,12.13
2019-05-10T20:59:32.350Z,12.09
2019-05-10T21:02:01.476Z,12.05
2019-05-10T21:04:30.674Z,12.05
2019-05-10T21:06:59.826Z,12.01
2019-05-10T21:09:28.950Z,12.00
2019-05-10T21:11:58.073Z,11.94
2019-05-10T21:14:27.238Z,11.86
2019-05-10T21:16:56.367Z,11.81
2019-05-10T21:19:25.542Z,11.77
2019-05-10T21:21:54.729Z,11.71
2019-05-10T21:24:23.881Z,11.66
2019-05-10T21:26:52.999Z,11.64
2019-05-10T21:29:22.175Z,11.60
2019-05-10T21:31:51.323Z,11.58
2019-05-10T21:34:20.567Z,11.56
2019-05-10T21:36:49.740Z,11.54
2019-05-10T21:39:18.903Z,11.52
2019-05-10T21:41:48.195Z,11.52
2019-05-10T21:44:17.345Z,11.50
2019-05-10T21:46:46.515Z,11.48
2019-05-10T21:49:15.635Z,11.50
2019-05-10T21:51:44.779Z,11.50
2019-05-10T21:54:13.913Z,11.46
2019-05-10T21:56:43.099Z,11.38
2019-05-10T21:59:12.231Z,11.33
2019-05-10T22:01:41.403Z,11.32
2019-05-10T22:04:10.498Z,11.33
2019-05-10T22:06:39.631Z,11.31
2019-05-10T22:09:34.457Z,11.28
2019-05-10T22:12:03.614Z,11.27
2019-05-10T22:14:32.778Z,11.21
2019-05-10T22:17:02.052Z,11.18
2019-05-10T22:19:31.266Z,11.16
2019-05-10T22:22:03.197Z,11.15
2019-05-10T22:24:59.322Z,11.13
2019-05-10T22:27:28.421Z,11.13
2019-05-10T22:29:57.571Z,11.13
2019-05-10T22:32:26.699Z,11.13
2019-05-10T22:34:55.829Z,11.12
2019-05-10T22:37:24.961Z,11.05
2019-05-10T22:39:54.091Z,11.01
2019-05-10T22:42:23.226Z,10.98
2019-05-10T22:44:52.348Z,10.97
2019-05-10T22:47:25.094Z,10.95
2019-05-10T22:49:52.337Z,10.97
2019-05-10T22:52:21.472Z,10.98
2019-05-10T22:54:50.617Z,10.97
2019-05-10T22:57:19.767Z,10.96
2019-05-10T22:59:48.916Z,10.95
2019-05-10T23:02:18.072Z,10.96
2019-05-10T23:04:47.192Z,10.97
2019-05-10T23:07:16.343Z,10.98
2019-05-10T23:09:45.469Z,10.97
2019-05-10T23:12:14.671Z,10.92
2019-05-10T23:14:43.795Z,10.88
2019-05-10T23:17:12.946Z,10.85
2019-05-10T23:19:42.104Z,10.81
2019-05-10T23:22:11.244Z,10.77
2019-05-10T23:24:40.394Z,10.77
2019-05-10T23:27:09.614Z,10.75
2019-05-10T23:29:38.881Z,9.77
2019-05-10T23:32:08.015Z,10.72
2019-05-10T23:34:37.159Z,10.69
2019-05-10T23:37:06.310Z,10.66
2019-05-10T23:39:40.776Z,10.66
2019-05-10T23:42:06.365Z,10.65
2019-05-10T23:44:35.511Z,10.65
2019-05-10T23:47:04.668Z,10.62
2019-05-10T23:49:33.826Z,10.57
2019-05-10T23:52:03.165Z,10.54
2019-05-10T23:54:32.409Z,10.52
2019-05-10T23:57:01.548Z,10.44
2019-05-10T23:59:30.698Z,10.39
